Terminal Aerodrome Forecast
Issued by NWS Los Angeles, CA

Current Version | Previous Version | Text Only | Print | Product List | Glossary On
Versions: 1 2 3 4 5 6 7 8 9 10 11 12 13 14 15 16 17 18 19 20 21 22 23 24
000
FTUS46 KLOX 220800 AAA
TAFSMX
TAF AMD
KSMX 220818Z 2208/2306 VRB03KT P6SM OVC006
     FM221000 VRB03KT 3SM BR OVC004
     FM221700 VRB03KT P6SM SKC
     FM222000 30012KT P6SM SKC
     FM230200 29007KT P6SM SKC=

USA.gov is the U.S. government's official web portal to all federal, state and local government web resources and services.